Terminal Aerodrome Forecast
Issued by NWS Sterling, VA

Home | Current Version | Previous Version | Text Only | Print | Product List | Glossary On
Versions: 1 2 3 4 5 6 7 8 9 10 11 12 13 14 15
000
FTUS41 KLWX 060231 AAA
TAFCHO
TAF AMD
KCHO 060231Z 0603/0624 VRB03KT P6SM BKN080
     FM060600 VRB03KT 3SM BR BKN150
     FM060900 00000KT 2SM BR BKN250
     FM061200 00000KT 3SM BR SCT250
     FM061300 00000KT P6SM SCT250
     FM061600 07005KT P6SM BKN050=

USA.gov is the U.S. government's official web portal to all federal, state and local government web resources and services.